Time;durP1;ratioP1;P1;durP2;ratioP2;P2;SDS_P1;SDS_P2;PMS_P1;PMS_P2;Temp;Humidity;BMP_temperature;BMP_pressure;BME280_temperature;BME280_humidity;BME280_pressure;Samples;Min_cycle;Max_cycle;Signal;HPM_P1;HPM_P2
2022/08/24 00:01:55;;;;;;;44.03;35.67;;;20.60;99.90;;;;;;5032120;28;20041;-66
2022/08/24 00:04:21;;;;;;;43.97;36.83;;;20.60;99.90;;;;;;5031783;28;20414;-67
2022/08/24 00:06:48;;;;;;;55.53;37.60;;;20.60;99.90;;;;;;5031904;28;20426;-67
2022/08/24 00:09:14;;;;;;;46.60;37.97;;;20.50;99.90;;;;;;5030770;28;20083;-67
2022/08/24 00:11:40;;;;;;;45.50;37.45;;;20.50;99.90;;;;;;5031967;28;20041;-67
2022/08/24 00:14:05;;;;;;;44.00;36.60;;;20.50;99.90;;;;;;5031740;28;20037;-67
2022/08/24 00:16:31;;;;;;;45.67;36.25;;;20.50;99.90;;;;;;5030630;28;20044;-67
2022/08/24 00:18:56;;;;;;;50.00;35.03;;;20.40;99.90;;;;;;5030712;28;20050;-67
2022/08/24 00:21:22;;;;;;;47.63;36.00;;;20.40;99.90;;;;;;5030280;28;20128;-67
2022/08/24 00:23:48;;;;;;;46.50;37.20;;;20.40;99.90;;;;;;5031627;28;20410;-67
2022/08/24 00:26:14;;;;;;;47.17;37.95;;;20.40;99.90;;;;;;5031687;28;20041;-67
2022/08/24 00:28:40;;;;;;;46.00;35.83;;;20.40;99.90;;;;;;5031769;28;20538;-67
2022/08/24 00:31:06;;;;;;;46.17;35.50;;;20.30;99.90;;;;;;5031511;28;20044;-67
2022/08/24 00:33:32;;;;;;;45.67;37.08;;;20.30;99.90;;;;;;5031512;28;20119;-67
2022/08/24 00:35:58;;;;;;;44.38;37.75;;;20.30;99.90;;;;;;5029912;28;20044;-67
2022/08/24 00:38:23;;;;;;;48.13;39.33;;;20.20;99.90;;;;;;5031573;28;20625;-67
2022/08/24 00:40:49;;;;;;;50.38;39.83;;;20.20;99.90;;;;;;5030120;28;20037;-67
2022/08/24 00:43:19;;;;;;;45.80;35.75;;;20.10;99.90;;;;;;5030156;28;20053;-67
2022/08/24 00:46:09;;;;;;;47.33;36.25;;;20.10;99.90;;;;;;5031115;28;20037;-67
2022/08/24 00:48:41;;;;;;;45.28;37.53;;;20.10;99.90;;;;;;5031476;28;20056;-67
2022/08/24 00:51:21;;;;;;;47.90;37.83;;;20.10;99.90;;;;;;5031310;28;20088;-67
2022/08/24 00:53:51;;;;;;;50.47;37.72;;;20.10;99.90;;;;;;5031074;28;20056;-67
2022/08/24 00:56:23;;;;;;;48.35;38.20;;;20.10;99.90;;;;;;5031022;28;20049;-67
2022/08/24 00:58:52;;;;;;;45.38;39.22;;;20.00;99.90;;;;;;5030554;28;20092;-67
2022/08/24 01:01:18;;;;;;;44.88;37.35;;;20.00;99.90;;;;;;5030157;28;20640;-67
2022/08/24 01:03:45;;;;;;;47.42;37.30;;;20.00;99.90;;;;;;5031007;28;20061;-67
2022/08/24 01:06:11;;;;;;;46.22;36.80;;;19.90;99.90;;;;;;5029900;28;20076;-67
2022/08/24 01:08:39;;;;;;;43.30;37.33;;;20.00;99.90;;;;;;5030955;28;20107;-67
2022/08/24 01:11:11;;;;;;;49.15;38.50;;;19.90;99.90;;;;;;5029508;28;20518;-67
2022/08/24 01:13:37;;;;;;;47.92;38.10;;;19.90;99.90;;;;;;5030960;28;20561;-67
2022/08/24 01:16:06;;;;;;;44.90;37.55;;;19.80;99.90;;;;;;5013222;28;20116;-67
2022/08/24 01:18:50;;;;;;;47.33;36.80;;;19.80;99.90;;;;;;5030986;28;20076;-67
2022/08/24 01:21:29;;;;;;;48.38;36.60;;;19.80;99.90;;;;;;5030836;28;20041;-67
2022/08/24 01:23:58;;;;;;;50.20;39.20;;;19.80;99.90;;;;;;5030817;28;20077;-67
2022/08/24 01:26:35;;;;;;;49.30;38.17;;;19.80;99.90;;;;;;5030967;28;20042;-67
2022/08/24 01:29:08;;;;;;;44.67;35.80;;;19.70;99.90;;;;;;5030909;28;20045;-67
2022/08/24 01:31:34;;;;;;;40.30;33.90;;;19.60;99.90;;;;;;5030740;28;20768;-67
2022/08/24 01:34:00;;;;;;;42.42;35.40;;;19.50;99.90;;;;;;5030288;28;20046;-67
2022/08/24 01:36:33;;;;;;;44.03;35.03;;;19.50;99.90;;;;;;5030933;28;20072;-67
2022/08/24 01:39:06;;;;;;;42.83;33.97;;;19.50;99.90;;;;;;5030617;28;20533;-67
2022/08/24 01:41:32;;;;;;;41.80;33.80;;;19.50;99.90;;;;;;5030838;28;20065;-66
2022/08/24 01:43:58;;;;;;;43.83;33.60;;;19.50;99.90;;;;;;5030302;28;20422;-67
2022/08/24 01:46:24;;;;;;;43.42;35.50;;;19.50;99.90;;;;;;5029352;28;20053;-67
2022/08/24 01:48:49;;;;;;;46.22;38.53;;;19.50;99.90;;;;;;5030656;28;20041;-67
2022/08/24 01:51:15;;;;;;;47.17;36.53;;;19.50;99.90;;;;;;5029224;28;20060;-67
2022/08/24 01:53:40;;;;;;;44.35;36.42;;;19.40;99.90;;;;;;5029197;28;20113;-67
2022/08/24 01:56:06;;;;;;;48.58;37.25;;;19.30;99.90;;;;;;5030393;28;20045;-67
2022/08/24 01:58:32;;;;;;;40.33;33.67;;;19.30;99.90;;;;;;5030607;28;20045;-66
2022/08/24 02:00:57;;;;;;;36.22;30.20;;;19.20;99.90;;;;;;5030409;28;20103;-67
2022/08/24 02:03:23;;;;;;;32.47;28.85;;;19.10;99.90;;;;;;5030435;28;20042;-67
2022/08/24 02:05:49;;;;;;;38.08;31.17;;;19.10;99.90;;;;;;5030280;28;20533;-67
2022/08/24 02:08:15;;;;;;;37.22;31.45;;;19.10;99.90;;;;;;5030468;28;20112;-67
2022/08/24 02:10:41;;;;;;;38.80;32.15;;;19.20;99.90;;;;;;5032640;28;20618;-67
2022/08/24 02:13:07;;;;;;;39.75;33.53;;;19.20;99.90;;;;;;5034209;28;20396;-67
2022/08/24 02:15:38;;;;;;;41.50;33.97;;;19.20;99.90;;;;;;5032678;28;20034;-67
2022/08/24 02:18:09;;;;;;;41.03;33.67;;;19.20;99.90;;;;;;5034408;28;20053;-67
2022/08/24 02:20:35;;;;;;;41.00;35.22;;;19.10;99.90;;;;;;5032720;28;20046;-67
2022/08/24 02:23:01;;;;;;;41.75;34.65;;;19.10;99.90;;;;;;5032773;28;20056;-67
2022/08/24 02:25:29;;;;;;;41.25;35.55;;;19.20;99.90;;;;;;5033750;28;20056;-67
2022/08/24 02:27:56;;;;;;;46.58;37.15;;;19.10;99.90;;;;;;5016178;28;20053;-67
2022/08/24 02:30:23;;;;;;;41.00;35.47;;;19.10;99.90;;;;;;5033796;28;20450;-66
2022/08/24 02:32:48;;;;;;;35.20;30.85;;;19.10;99.90;;;;;;5032666;28;20050;-67
2022/08/24 02:35:14;;;;;;;40.90;31.52;;;18.90;99.90;;;;;;5033705;28;20106;-67
2022/08/24 02:37:40;;;;;;;40.35;32.70;;;19.00;99.90;;;;;;5033801;28;20486;-67
2022/08/24 02:40:08;;;;;;;40.38;34.17;;;19.00;99.90;;;;;;5032394;28;20041;-66
2022/08/24 02:42:34;;;;;;;39.83;33.63;;;19.00;99.90;;;;;;5033782;28;20076;-67
2022/08/24 02:45:01;;;;;;;42.58;34.17;;;19.00;99.90;;;;;;5033312;28;20120;-67
2022/08/24 02:47:26;;;;;;;38.75;31.77;;;18.90;99.90;;;;;;5033822;28;20045;-67
2022/08/24 02:49:52;;;;;;;39.78;30.05;;;18.90;99.90;;;;;;5033472;28;20557;-67
2022/08/24 02:52:17;;;;;;;37.53;31.27;;;18.80;99.90;;;;;;5032347;28;20399;-67
2022/08/24 02:54:43;;;;;;;36.95;31.50;;;18.70;99.90;;;;;;5032683;28;20087;-67
2022/08/24 02:57:08;;;;;;;35.33;29.02;;;18.60;99.90;;;;;;5033367;28;20060;-67
2022/08/24 02:59:34;;;;;;;36.63;30.05;;;18.60;99.90;;;;;;5033358;28;20052;-66
2022/08/24 03:01:59;;;;;;;34.42;29.48;;;18.60;99.90;;;;;;5033243;28;20045;-67
2022/08/24 03:04:26;;;;;;;31.63;27.25;;;18.60;99.90;;;;;;5032902;28;20052;-67
2022/08/24 03:06:52;;;;;;;31.83;28.27;;;18.60;99.90;;;;;;5033199;28;20132;-66
2022/08/24 03:09:17;;;;;;;31.08;27.77;;;18.60;99.90;;;;;;5033085;28;20128;-66
2022/08/24 03:11:43;;;;;;;29.73;26.52;;;18.60;99.90;;;;;;5033143;28;20076;-67
2022/08/24 03:14:09;;;;;;;33.42;27.83;;;18.60;99.90;;;;;;5031548;28;20071;-67
2022/08/24 03:16:35;;;;;;;32.58;27.85;;;18.60;99.90;;;;;;5031886;28;20518;-66
2022/08/24 03:19:01;;;;;;;29.70;26.48;;;18.60;99.90;;;;;;5032925;28;20503;-66
2022/08/24 03:21:27;;;;;;;31.83;27.27;;;18.60;99.90;;;;;;5032495;28;20061;-66
2022/08/24 03:23:52;;;;;;;36.90;29.58;;;18.70;99.90;;;;;;5031410;28;20068;-67
2022/08/24 03:26:19;;;;;;;43.47;30.13;;;18.70;99.90;;;;;;5033055;28;20483;-66
2022/08/24 03:28:44;;;;;;;34.67;28.63;;;18.60;99.90;;;;;;5032846;28;20549;-67
2022/08/24 03:31:11;;;;;;;35.25;30.02;;;18.60;99.90;;;;;;5032663;28;20038;-67
2022/08/24 03:33:36;;;;;;;36.70;29.60;;;18.60;99.90;;;;;;5032646;28;20140;-67
2022/08/24 03:36:02;;;;;;;39.17;30.98;;;18.50;99.90;;;;;;5032580;28;20073;-67
2022/08/24 03:38:28;;;;;;;38.13;31.67;;;18.40;99.90;;;;;;5031262;28;20491;-67
2022/08/24 03:40:54;;;;;;;37.13;31.27;;;18.40;99.90;;;;;;5032651;28;20040;-67
2022/08/24 03:46:06;;;;;;;36.03;31.27;;;18.50;99.90;;;;;;5032253;28;20048;-66
2022/08/24 03:48:32;;;;;;;36.08;28.98;;;18.50;99.90;;;;;;5032384;28;20045;-67
2022/08/24 03:50:57;;;;;;;31.50;26.73;;;18.50;99.90;;;;;;5032388;28;20045;-67
2022/08/24 03:53:23;;;;;;;28.60;25.55;;;18.50;99.90;;;;;;5031103;28;20445;-66
2022/08/24 03:55:49;;;;;;;31.23;26.40;;;18.40;99.90;;;;;;5031720;28;20037;-67
2022/08/24 03:58:14;;;;;;;26.45;23.65;;;18.40;99.90;;;;;;5031249;28;20402;-67
2022/08/24 04:00:41;;;;;;;28.30;23.65;;;18.40;99.90;;;;;;5031037;28;20041;-67
2022/08/24 04:03:08;;;;;;;26.17;22.65;;;18.30;99.90;;;;;;5032055;28;20545;-67
2022/08/24 04:05:35;;;;;;;27.73;22.70;;;18.30;99.90;;;;;;5030860;28;20049;-66
2022/08/24 04:08:01;;;;;;;24.90;22.38;;;18.20;99.90;;;;;;5030966;28;20081;-67
2022/08/24 04:10:27;;;;;;;24.85;22.35;;;18.10;99.90;;;;;;5030830;28;20077;-67
2022/08/24 04:12:53;;;;;;;24.58;22.15;;;18.20;99.90;;;;;;5032070;28;20491;-67
2022/08/24 04:15:19;;;;;;;26.98;24.17;;;18.20;99.90;;;;;;5030374;28;20040;-67
2022/08/24 04:17:44;;;;;;;26.15;23.63;;;18.20;99.90;;;;;;5031927;28;20041;-66
2022/08/24 04:20:10;;;;;;;26.23;23.58;;;18.20;99.90;;;;;;5031986;28;20034;-66
2022/08/24 04:22:36;;;;;;;28.98;24.55;;;18.10;99.90;;;;;;5014366;28;20045;-67
2022/08/24 04:25:04;;;;;;;29.63;26.45;;;18.10;99.90;;;;;;5031133;28;20045;-67
2022/08/24 04:27:29;;;;;;;28.63;25.83;;;18.00;99.90;;;;;;5029281;28;20049;-67
2022/08/24 04:29:55;;;;;;;30.00;26.92;;;17.90;99.90;;;;;;5027076;28;20510;-67
2022/08/24 04:32:20;;;;;;;29.73;26.70;;;17.80;99.90;;;;;;5027660;28;20625;-66
2022/08/24 04:34:46;;;;;;;30.15;26.95;;;17.90;99.90;;;;;;5028540;28;20052;-66
2022/08/24 04:37:11;;;;;;;28.17;25.25;;;17.90;99.90;;;;;;5030866;28;20044;-66
2022/08/24 04:39:38;;;;;;;28.48;25.63;;;17.90;99.90;;;;;;5029063;28;20121;-67
2022/08/24 04:42:04;;;;;;;26.00;23.30;;;17.80;99.90;;;;;;5030919;28;20068;-66
2022/08/24 04:44:30;;;;;;;26.95;24.30;;;17.80;99.90;;;;;;5030136;28;20045;-66
2022/08/24 04:46:56;;;;;;;26.83;23.98;;;17.80;99.90;;;;;;5031609;28;20041;-66
2022/08/24 04:49:22;;;;;;;28.02;25.10;;;17.90;99.90;;;;;;5030087;28;20044;-67
2022/08/24 04:51:48;;;;;;;26.95;24.05;;;17.90;99.90;;;;;;5031288;28;20068;-67
2022/08/24 04:54:14;;;;;;;27.52;24.55;;;17.90;99.90;;;;;;5029168;28;20473;-66
2022/08/24 04:56:39;;;;;;;28.33;25.25;;;17.90;99.90;;;;;;5031311;28;20064;-67
2022/08/24 04:59:05;;;;;;;29.20;26.30;;;17.80;99.90;;;;;;5031359;28;20041;-66
2022/08/24 05:01:32;;;;;;;29.55;26.55;;;17.70;99.90;;;;;;5029926;28;20045;-67
2022/08/24 05:03:58;;;;;;;28.42;25.63;;;17.70;99.90;;;;;;5030950;28;20044;-67
2022/08/24 05:06:27;;;;;;;29.27;26.27;;;17.70;99.90;;;;;;5031161;28;20043;-67
2022/08/24 05:08:53;;;;;;;28.20;25.48;;;17.80;99.90;;;;;;5030838;28;20467;-66
2022/08/24 05:11:19;;;;;;;29.33;26.42;;;17.90;99.90;;;;;;5031117;28;20419;-66
2022/08/24 05:13:46;;;;;;;30.33;27.13;;;17.80;99.90;;;;;;5030932;28;20034;-67
2022/08/24 05:16:15;;;;;;;29.80;26.77;;;17.80;99.90;;;;;;5030982;28;20531;-66
2022/08/24 05:18:41;;;;;;;29.17;26.17;;;17.80;99.90;;;;;;5029906;28;20088;-67
2022/08/24 05:21:09;;;;;;;30.08;26.85;;;17.90;99.90;;;;;;5030815;28;20041;-66
2022/08/24 05:23:35;;;;;;;28.25;25.35;;;18.00;99.90;;;;;;5031096;28;20053;-67
2022/08/24 05:26:06;;;;;;;30.60;25.63;;;18.10;99.90;;;;;;5030803;28;20037;-67
2022/08/24 05:28:34;;;;;;;31.17;27.40;;;18.30;99.90;;;;;;5031046;28;20047;-67
2022/08/24 05:31:12;;;;;;;34.03;29.92;;;18.40;99.90;;;;;;5029529;28;20135;-67
2022/08/24 05:33:38;;;;;;;34.50;30.38;;;18.50;99.90;;;;;;5030731;28;20041;-67
2022/08/24 05:36:05;;;;;;;36.20;29.67;;;18.50;99.90;;;;;;5030753;28;20045;-67
2022/08/24 05:38:34;;;;;;;31.63;28.20;;;18.70;99.90;;;;;;5030964;28;20462;-67
2022/08/24 05:41:04;;;;;;;31.73;28.20;;;18.80;99.90;;;;;;5030891;28;20041;-67
2022/08/24 05:43:29;;;;;;;30.23;26.88;;;18.80;99.90;;;;;;5030915;28;20037;-67
2022/08/24 05:45:55;;;;;;;33.25;28.63;;;18.90;99.90;;;;;;5033307;28;20048;-67
2022/08/24 05:48:21;;;;;;;32.40;28.30;;;18.90;99.90;;;;;;5034701;28;20039;-66
2022/08/24 05:50:55;;;;;;;30.52;27.23;;;18.90;99.90;;;;;;5033222;28;20103;-67
2022/08/24 05:53:21;;;;;;;33.10;27.88;;;19.00;99.90;;;;;;5034784;28;20451;-67
2022/08/24 05:55:48;;;;;;;33.80;29.10;;;19.00;99.90;;;;;;5033983;28;20111;-66
2022/08/24 05:58:13;;;;;;;32.92;28.60;;;19.20;99.90;;;;;;5034474;28;20045;-67
2022/08/24 06:00:39;;;;;;;33.75;29.02;;;19.20;99.90;;;;;;5034514;28;20041;-67
2022/08/24 06:03:05;;;;;;;32.67;29.17;;;19.20;99.90;;;;;;5034410;28;20384;-67
2022/08/24 06:05:30;;;;;;;32.60;28.02;;;19.20;99.90;;;;;;5034246;28;20487;-66
2022/08/24 06:07:56;;;;;;;33.83;28.80;;;19.40;99.90;;;;;;5034314;28;20044;-66
2022/08/24 06:10:21;;;;;;;39.28;31.80;;;19.40;99.90;;;;;;5034090;28;20056;-66
2022/08/24 06:12:47;;;;;;;41.25;33.13;;;19.50;99.90;;;;;;5034200;28;20513;-66
2022/08/24 06:15:13;;;;;;;38.00;32.22;;;19.50;99.90;;;;;;5033842;28;20371;-66
2022/08/24 06:17:39;;;;;;;39.58;32.83;;;19.60;99.90;;;;;;5034395;28;20402;-66
2022/08/24 06:20:06;;;;;;;43.50;35.17;;;19.70;99.90;;;;;;5034219;28;20092;-66
2022/08/24 06:22:32;;;;;;;58.83;43.60;;;19.80;99.90;;;;;;5034195;28;20091;-66
2022/08/24 06:27:41;;;;;;;62.90;47.13;;;20.10;99.90;;;;;;5034239;28;20190;-67
2022/08/24 06:30:08;;;;;;;55.88;43.30;;;20.10;99.90;;;;;;5034184;28;20125;-66
2022/08/24 06:32:35;;;;;;;58.17;42.28;;;20.30;99.90;;;;;;5032936;28;20049;-66
2022/08/24 06:35:01;;;;;;;50.13;39.33;;;20.50;99.90;;;;;;5033627;28;20033;-66
2022/08/24 06:37:26;;;;;;;53.03;38.65;;;20.70;99.90;;;;;;5033802;28;20057;-66
2022/08/24 06:39:58;;;;;;;48.58;37.65;;;20.80;99.90;;;;;;5033783;28;20038;-66
2022/08/24 06:42:24;;;;;;;47.90;36.87;;;20.90;99.90;;;;;;5033965;28;20049;-66
2022/08/24 06:44:51;;;;;;;58.10;43.95;;;21.00;99.90;;;;;;5033373;28;20034;-66
2022/08/24 06:47:17;;;;;;;53.90;41.95;;;21.10;99.90;;;;;;5033687;28;20164;-66
2022/08/24 06:49:42;;;;;;;56.55;44.25;;;21.10;99.90;;;;;;5033524;28;20035;-66
2022/08/24 06:52:10;;;;;;;66.90;47.78;;;21.20;99.90;;;;;;5033286;28;20037;-66
2022/08/24 06:54:37;;;;;;;60.30;49.72;;;21.30;99.90;;;;;;5033103;28;20426;-66
2022/08/24 06:57:03;;;;;;;58.53;45.10;;;21.30;99.90;;;;;;5032433;28;20403;-66
2022/08/24 06:59:30;;;;;;;59.17;46.58;;;21.40;99.90;;;;;;5033228;28;20041;-66
2022/08/24 07:01:55;;;;;;;57.33;44.88;;;21.50;99.90;;;;;;5033355;28;20034;-67
2022/08/24 07:04:23;;;;;;;55.20;46.00;;;21.60;99.90;;;;;;5033081;28;20514;-66
2022/08/24 07:06:50;;;;;;;60.53;46.83;;;21.50;99.90;;;;;;5033297;28;20037;-66
2022/08/24 07:09:16;;;;;;;60.30;46.67;;;21.60;99.90;;;;;;5032999;28;20045;-66
2022/08/24 07:11:42;;;;;;;60.13;47.30;;;21.70;99.90;;;;;;5031861;28;20045;-66
2022/08/24 07:14:08;;;;;;;70.13;51.22;;;21.70;99.90;;;;;;5031587;28;20060;-66
2022/08/24 07:16:34;;;;;;;63.75;51.38;;;21.70;99.90;;;;;;5033191;28;20041;-66
2022/08/24 07:19:01;;;;;;;63.15;49.22;;;21.80;99.90;;;;;;5033061;28;20038;-66
2022/08/24 07:21:27;;;;;;;64.28;49.75;;;21.80;99.90;;;;;;5032952;28;20045;-66
2022/08/24 07:23:58;;;;;;;60.03;46.35;;;21.90;99.90;;;;;;5032614;28;20525;-67
2022/08/24 07:26:26;;;;;;;67.70;47.38;;;22.00;99.90;;;;;;5033111;28;20155;-67
2022/08/24 07:28:59;;;;;;;51.08;43.17;;;21.90;99.90;;;;;;5031185;28;20092;-67
2022/08/24 07:31:25;;;;;;;51.00;42.85;;;22.00;99.90;;;;;;5032315;28;20049;-67
2022/08/24 07:33:51;;;;;;;54.97;43.15;;;22.00;99.90;;;;;;5032357;28;20045;-67
2022/08/24 07:36:18;;;;;;;54.30;41.40;;;22.10;99.90;;;;;;5032002;28;20037;-67
2022/08/24 07:38:45;;;;;;;51.03;40.15;;;22.20;99.90;;;;;;5032523;28;20053;-67
2022/08/24 07:41:13;;;;;;;44.72;36.17;;;22.20;99.90;;;;;;5030975;28;20111;-67
2022/08/24 07:43:39;;;;;;;40.00;31.02;;;22.40;99.90;;;;;;5030908;28;20045;-67
2022/08/24 07:46:06;;;;;;;42.97;29.15;;;22.50;99.90;;;;;;5031711;28;20041;-67
2022/08/24 07:48:32;;;;;;;36.72;27.42;;;22.50;99.90;;;;;;5018292;28;20439;-67
2022/08/24 07:50:58;;;;;;;38.55;29.95;;;22.60;99.90;;;;;;5012134;28;20038;-66
2022/08/24 07:53:24;;;;;;;33.95;27.80;;;22.70;99.90;;;;;;5011317;28;20084;-66
2022/08/24 07:55:56;;;;;;;37.95;27.95;;;22.70;99.90;;;;;;5010777;28;20037;-66
2022/08/24 07:58:23;;;;;;;31.80;23.20;;;22.80;99.90;;;;;;5012226;28;20101;-66
2022/08/24 08:00:48;;;;;;;29.02;23.77;;;22.80;99.90;;;;;;5012453;28;20466;-66
2022/08/24 08:03:14;;;;;;;29.05;22.98;;;22.90;99.90;;;;;;5012614;28;20049;-66
2022/08/24 08:05:40;;;;;;;28.33;21.92;;;23.00;99.90;;;;;;5012223;28;20046;-66
2022/08/24 08:08:06;;;;;;;28.25;21.70;;;23.10;99.90;;;;;;5012178;28;20488;-66
2022/08/24 08:10:34;;;;;;;26.25;18.35;;;23.10;99.90;;;;;;5012066;28;20065;-67
2022/08/24 08:13:04;;;;;;;26.30;19.25;;;23.10;99.90;;;;;;5012120;28;20080;-66
2022/08/24 08:15:30;;;;;;;31.10;21.60;;;23.10;99.90;;;;;;5011893;28;20053;-65
2022/08/24 08:17:57;;;;;;;27.48;19.63;;;23.20;99.90;;;;;;5012136;28;20515;-65
2022/08/24 08:20:23;;;;;;;22.98;16.63;;;23.20;99.90;;;;;;5012162;28;20404;-65
2022/08/24 08:25:37;;;;;;;25.77;17.50;;;23.50;99.90;;;;;;5011653;28;20050;-66
2022/08/24 08:28:04;;;;;;;21.85;16.25;;;23.50;99.90;;;;;;5010911;28;20049;-66
2022/08/24 08:30:30;;;;;;;21.00;13.60;;;23.60;99.90;;;;;;5011937;28;20049;-66
2022/08/24 08:32:56;;;;;;;20.17;15.13;;;23.80;99.90;;;;;;5011962;28;20038;-66
2022/08/24 08:35:21;;;;;;;21.73;14.48;;;23.90;99.90;;;;;;5011656;28;20037;-66
2022/08/24 08:37:47;;;;;;;22.40;17.70;;;24.00;99.90;;;;;;5010664;28;20100;-65
2022/08/24 08:40:39;;;;;;;25.67;17.50;;;23.90;99.90;;;;;;5011797;28;20038;-66
2022/08/24 08:43:11;;;;;;;24.70;17.30;;;24.10;99.90;;;;;;5011811;28;20038;-65
2022/08/24 08:46:08;;;;;;;27.17;17.23;;;24.30;99.90;;;;;;5011583;28;20142;-66
2022/08/24 08:48:47;;;;;;;25.48;16.90;;;24.20;99.90;;;;;;5011726;28;20125;-66
2022/08/24 08:51:27;;;;;;;21.45;15.10;;;24.40;99.90;;;;;;5011594;28;20042;-66
2022/08/24 08:54:11;;;;;;;22.35;13.43;;;24.30;99.90;;;;;;5010279;28;20038;-66
2022/08/24 08:56:50;;;;;;;23.30;13.65;;;24.50;99.90;;;;;;5011369;28;20042;-66
2022/08/24 08:59:36;;;;;;;17.08;13.23;;;24.60;99.90;;;;;;5011618;28;20046;-65
2022/08/24 09:02:27;;;;;;;19.40;9.75;;;24.60;99.90;;;;;;5010376;28;20543;-66
2022/08/24 09:05:31;;;;;;;15.00;9.63;;;24.60;99.90;;;;;;5011298;28;20073;-66
2022/08/24 09:08:16;;;;;;;13.43;7.80;;;24.60;99.90;;;;;;5011410;28;20605;-66
2022/08/24 09:10:55;;;;;;;15.48;9.85;;;24.60;99.90;;;;;;5011139;28;20065;-67
2022/08/24 09:13:49;;;;;;;14.70;10.00;;;24.60;99.90;;;;;;5009873;28;20041;-67
2022/08/24 09:16:33;;;;;;;17.48;10.77;;;24.90;99.90;;;;;;5009995;28;20095;-66
2022/08/24 09:19:29;;;;;;;12.73;9.07;;;25.00;99.90;;;;;;5010015;28;20046;-66
2022/08/24 09:22:10;;;;;;;9.98;8.02;;;24.90;99.90;;;;;;5011095;28;20042;-66
2022/08/24 09:24:53;;;;;;;12.68;8.30;;;25.00;99.90;;;;;;5010360;28;20554;-66
2022/08/24 09:27:39;;;;;;;12.60;7.05;;;24.90;99.90;;;;;;5009572;28;20044;-66
2022/08/24 09:30:17;;;;;;;12.35;7.00;;;25.00;99.90;;;;;;5011024;28;20065;-66
2022/08/24 09:33:16;;;;;;;17.55;10.02;;;25.00;99.90;;;;;;5009685;28;20499;-66
2022/08/24 09:36:06;;;;;;;18.25;10.90;;;25.10;99.90;;;;;;4992583;28;20099;-66
2022/08/24 09:38:35;;;;;;;11.75;7.78;;;25.00;99.90;;;;;;5010966;28;20170;-66
2022/08/24 09:41:33;;;;;;;12.43;8.93;;;25.00;99.90;;;;;;5010649;28;20099;-66
2022/08/24 09:44:14;;;;;;;13.70;9.60;;;25.30;99.90;;;;;;5010219;28;20116;-66
2022/08/24 09:46:58;;;;;;;12.30;8.63;;;25.40;99.90;;;;;;5010894;28;20048;-66
2022/08/24 09:49:42;;;;;;;13.55;8.88;;;25.50;99.90;;;;;;5010712;28;20440;-66
2022/08/24 09:52:42;;;;;;;14.10;9.18;;;25.60;99.90;;;;;;5010478;28;20092;-66
2022/08/24 09:55:42;;;;;;;18.55;9.27;;;25.70;99.90;;;;;;5010217;28;20065;-66
2022/08/24 09:58:39;;;;;;;16.63;8.63;;;25.60;99.90;;;;;;5010710;28;20077;-66
2022/08/24 10:01:30;;;;;;;12.80;6.07;;;25.60;99.90;;;;;;5010790;28;20042;-66
2022/08/24 10:04:26;;;;;;;19.65;7.30;;;26.00;99.90;;;;;;5025388;28;20508;-66
2022/08/24 10:07:12;;;;;;;6.32;5.55;;;26.00;99.90;;;;;;5010573;28;20100;-66
2022/08/24 10:09:51;;;;;;;8.80;5.90;;;26.00;99.90;;;;;;5010321;28;20125;-66
2022/08/24 10:12:31;;;;;;;9.88;5.30;;;26.20;99.90;;;;;;5010475;28;20419;-66
2022/08/24 10:15:26;;;;;;;8.50;5.13;;;26.20;99.90;;;;;;5009000;28;20411;-67
2022/08/24 10:18:22;;;;;;;13.18;5.18;;;26.30;99.90;;;;;;4952956;28;20141;-66
2022/08/24 10:21:17;;;;;;;7.22;4.43;;;26.30;99.90;;;;;;4969179;28;20137;-66
2022/08/24 10:24:03;;;;;;;9.27;4.65;;;26.20;99.90;;;;;;4952483;28;20054;-66
2022/08/24 10:27:18;;;;;;;8.07;4.50;;;26.30;99.90;;;;;;4968947;28;20055;-66
2022/08/24 10:30:15;;;;;;;10.48;4.40;;;26.50;99.90;;;;;;4960486;28;20070;-66
2022/08/24 10:32:46;;;;;;;8.70;4.95;;;26.30;99.90;;;;;;4972520;28;20057;-66
2022/08/24 10:35:16;;;;;;;9.80;5.87;;;26.40;99.90;;;;;;4982252;28;20054;-67
2022/08/24 10:41:13;;;;;;;8.20;4.35;;;26.30;99.90;;;;;;4991517;28;20540;-66
2022/08/24 10:43:54;;;;;;;6.68;4.40;;;26.50;99.90;;;;;;4975622;28;20069;-67
2022/08/24 10:46:44;;;;;;;7.82;4.80;;;26.50;99.90;;;;;;4991889;28;20546;-66
2022/08/24 10:49:33;;;;;;;6.80;4.00;;;26.30;99.90;;;;;;4991795;28;20046;-66
2022/08/24 10:52:01;;;;;;;5.40;3.17;;;26.40;99.90;;;;;;4991654;28;20065;-66
2022/08/24 10:54:31;;;;;;;5.95;3.58;;;26.40;99.90;;;;;;5014639;28;20060;-66
2022/08/24 10:57:07;;;;;;;9.00;2.67;;;26.50;99.90;;;;;;5033637;28;20049;-66
2022/08/24 10:59:46;;;;;;;4.75;2.00;;;26.50;99.90;;;;;;5032530;28;20064;-65
2022/08/24 11:02:33;;;;;;;4.47;3.08;;;26.50;99.90;;;;;;5032331;28;20048;-66
2022/08/24 11:05:04;;;;;;;5.63;2.70;;;26.60;99.90;;;;;;5031657;28;20060;-66
2022/08/24 11:07:30;;;;;;;8.60;3.17;;;26.60;99.90;;;;;;5033252;28;20048;-66
2022/08/24 11:09:59;;;;;;;6.22;2.13;;;26.60;99.90;;;;;;5033059;28;20045;-66
2022/08/24 11:12:27;;;;;;;4.43;1.45;;;26.70;99.90;;;;;;5032999;28;20092;-68
2022/08/24 11:15:01;;;;;;;3.08;1.70;;;26.90;99.90;;;;;;5031625;28;20436;-66
2022/08/24 11:17:31;;;;;;;3.33;2.15;;;26.90;99.90;;;;;;5033194;28;20048;-65
2022/08/24 11:19:58;;;;;;;3.42;2.10;;;26.90;99.90;;;;;;5013070;28;20038;-66
2022/08/24 11:22:39;;;;;;;3.05;1.30;;;27.00;99.90;;;;;;5012917;28;20041;-66
2022/08/24 11:25:26;;;;;;;6.88;1.73;;;27.10;99.90;;;;;;5012563;28;20072;-66
2022/08/24 11:28:09;;;;;;;5.32;1.80;;;27.10;99.90;;;;;;5011773;28;20400;-67
2022/08/24 11:30:39;;;;;;;2.20;1.45;;;27.10;99.90;;;;;;5011013;28;20095;-67
2022/08/24 11:33:22;;;;;;;1.90;1.70;;;27.10;99.90;;;;;;5012702;28;20042;-67
2022/08/24 11:35:48;;;;;;;2.30;1.42;;;27.20;99.90;;;;;;5012680;28;20049;-66
2022/08/24 11:38:21;;;;;;;3.50;1.67;;;27.10;99.90;;;;;;5011727;28;20042;-66
2022/08/24 11:40:54;;;;;;;2.72;1.80;;;27.20;99.90;;;;;;5012950;28;20440;-66
2022/08/24 11:43:29;;;;;;;1.92;1.52;;;27.20;99.90;;;;;;5012569;28;20052;-66
2022/08/24 11:46:07;;;;;;;2.25;1.42;;;27.20;99.90;;;;;;5011350;28;20081;-67
2022/08/24 11:48:58;;;;;;;3.10;1.65;;;27.30;99.90;;;;;;5011481;28;20053;-66
2022/08/24 11:51:39;;;;;;;2.72;1.85;;;27.20;99.90;;;;;;5011558;28;20041;-66
2022/08/24 11:54:04;;;;;;;1.83;1.50;;;27.30;99.90;;;;;;5012433;28;20120;-66
2022/08/24 11:56:39;;;;;;;4.03;1.85;;;27.20;99.90;;;;;;5012354;28;20125;-67
2022/08/24 11:59:37;;;;;;;3.90;1.77;;;27.20;99.90;;;;;;5012761;28;20049;-66
2022/08/24 12:02:09;;;;;;;4.10;1.27;;;27.30;99.90;;;;;;5011171;28;20038;-66
2022/08/24 12:04:40;;;;;;;;;;;27.40;99.90;;;;;;5012612;28;20419;-66
2022/08/24 12:07:33;;;;;;;1.38;1.08;;;27.50;99.90;;;;;;5011023;28;20383;-66
2022/08/24 12:10:36;;;;;;;2.78;1.40;;;27.60;99.90;;;;;;5012313;28;20041;-66
2022/08/24 12:13:35;;;;;;;3.58;1.33;;;27.60;99.90;;;;;;5012265;28;20080;-67
2022/08/24 12:16:28;;;;;;;2.45;1.15;;;27.80;99.90;;;;;;5010635;28;20385;-66
2022/08/24 12:19:20;;;;;;;2.13;1.15;;;27.70;99.90;;;;;;5010928;28;20099;-67
2022/08/24 12:21:49;;;;;;;2.23;1.37;;;27.70;99.90;;;;;;5010796;28;20534;-67
2022/08/24 12:24:22;;;;;;;1.90;1.30;;;27.90;99.90;;;;;;5011951;28;20034;-67
2022/08/24 12:26:53;;;;;;;3.58;0.93;;;27.80;99.90;;;;;;5012186;28;20053;-67
2022/08/24 12:29:37;;;;;;;2.13;1.23;;;27.90;99.90;;;;;;5012153;28;20042;-67
2022/08/24 12:32:20;;;;;;;2.30;1.10;;;27.90;99.90;;;;;;5011928;28;20046;-67
2022/08/24 12:34:53;;;;;;;1.63;0.90;;;27.80;99.90;;;;;;5010460;28;20050;-67
2022/08/24 12:37:31;;;;;;;1.10;0.98;;;27.90;99.90;;;;;;5010476;28;20085;-67
2022/08/24 12:40:21;;;;;;;1.70;1.05;;;28.00;99.90;;;;;;5011796;28;20061;-67
2022/08/24 12:43:07;;;;;;;2.58;1.40;;;28.10;99.90;;;;;;5011992;28;20053;-67
2022/08/24 12:45:34;;;;;;;1.98;0.93;;;28.10;99.90;;;;;;5011630;28;20054;-67
2022/08/24 12:48:13;;;;;;;4.25;1.30;;;28.30;99.90;;;;;;5011738;28;20045;-67
2022/08/24 12:50:50;;;;;;;1.65;1.20;;;28.40;99.90;;;;;;5010164;28;20046;-67
2022/08/24 12:53:39;;;;;;;3.40;1.40;;;28.30;99.90;;;;;;5011694;28;20041;-67
2022/08/24 12:56:36;;;;;;;2.58;1.10;;;28.20;99.90;;;;;;5002375;28;20393;-67
2022/08/24 12:59:16;;;;;;;1.20;1.10;;;28.40;99.90;;;;;;5011772;28;20042;-67
2022/08/24 13:01:47;;;;;;;2.78;1.30;;;28.40;99.90;;;;;;5011583;28;20416;-67
2022/08/24 13:04:50;;;;;;;2.47;1.20;;;28.30;99.90;;;;;;5011245;28;20113;-67
2022/08/24 13:07:18;;;;;;;3.30;1.55;;;28.30;99.90;;;;;;5011263;28;20041;-67
2022/08/24 13:10:00;;;;;;;1.40;1.25;;;28.30;99.90;;;;;;5011332;28;20038;-67